HK5478 SKSG-SKMD
Flight info
| Callsign | HK5478 |
|---|---|
| Flight time | 0h 52m |
| Altitude | 24000 |
| Route | BG923 DCT BG913 DCT BG901 DCT VUNRO DCT DIPRA DCT XONUD DCT MD402 DCT ISTAX DCT MD403 |
| Aircraft | B36T/L-BDFGLORY/S |
Departure
| Time | 2026-05-03 21:10 |
|---|---|
| Airport | San Gil Airport (SKSG) |
Arrival
| Time | 2026-05-03 22:02 |
|---|---|
| Airport | Enrique Olaya Herrera Airport (SKMD) |
| Time | Latitude | Longitude | Altitude | Speed | Heading |
|---|---|---|---|---|---|
| 2026-05-03 21:09 | 6.60782 | -73.21765 | 8091 ft | 168 kts | 282° |
| 2026-05-03 21:10 | 6.61005 | -73.22924 | 8377 ft | 169 kts | 282° |
| 2026-05-03 21:10 | 6.61229 | -73.24086 | 8664 ft | 170 kts | 281° |
| 2026-05-03 21:10 | 6.61456 | -73.25255 | 8960 ft | 171 kts | 281° |
| 2026-05-03 21:10 | 6.61682 | -73.26428 | 9257 ft | 171 kts | 281° |
| 2026-05-03 21:11 | 6.61909 | -73.27602 | 9549 ft | 171 kts | 281° |
| 2026-05-03 21:11 | 6.62134 | -73.28766 | 9849 ft | 172 kts | 281° |
| 2026-05-03 21:11 | 6.62364 | -73.29970 | 9982 ft | 183 kts | 281° |
| 2026-05-03 21:11 | 6.62613 | -73.31258 | 9983 ft | 191 kts | 281° |
| 2026-05-03 21:12 | 6.62869 | -73.32587 | 9985 ft | 196 kts | 281° |
| 2026-05-03 21:12 | 6.63130 | -73.33940 | 9991 ft | 198 kts | 281° |
| 2026-05-03 21:12 | 6.63393 | -73.35306 | 9985 ft | 199 kts | 281° |
| 2026-05-03 21:12 | 6.63815 | -73.36624 | 9979 ft | 200 kts | 301° |
| 2026-05-03 21:13 | 6.64610 | -73.37771 | 9976 ft | 200 kts | 306° |
| 2026-05-03 21:13 | 6.65437 | -73.38899 | 9976 ft | 200 kts | 307° |
| 2026-05-03 21:13 | 6.66255 | -73.40009 | 9980 ft | 200 kts | 307° |
| 2026-05-03 21:13 | 6.66814 | -73.41279 | 9968 ft | 200 kts | 283° |
| 2026-05-03 21:14 | 6.67085 | -73.42609 | 9967 ft | 190 kts | 281° |
| 2026-05-03 21:14 | 6.67332 | -73.43893 | 9958 ft | 185 kts | 281° |
| 2026-05-03 21:14 | 6.67573 | -73.45154 | 9951 ft | 183 kts | 281° |
| 2026-05-03 21:14 | 6.67812 | -73.46403 | 9949 ft | 181 kts | 281° |
| 2026-05-03 21:15 | 6.68049 | -73.47646 | 9947 ft | 181 kts | 281° |
| 2026-05-03 21:15 | 6.68287 | -73.48886 | 9943 ft | 180 kts | 281° |
| 2026-05-03 21:15 | 6.68524 | -73.50124 | 9944 ft | 180 kts | 281° |
| 2026-05-03 21:15 | 6.68758 | -73.51345 | 9942 ft | 180 kts | 281° |
| 2026-05-03 21:16 | 6.68920 | -73.52595 | 9939 ft | 180 kts | 275° |
| 2026-05-03 21:16 | 6.69031 | -73.53850 | 9940 ft | 180 kts | 275° |
| 2026-05-03 21:16 | 6.69139 | -73.55106 | 9938 ft | 180 kts | 275° |
| 2026-05-03 21:16 | 6.69247 | -73.56361 | 9937 ft | 180 kts | 275° |
| 2026-05-03 21:17 | 6.69356 | -73.57617 | 9935 ft | 180 kts | 275° |
| 2026-05-03 21:17 | 6.69428 | -73.58448 | 9929 ft | 180 kts | 275° |
| 2026-05-03 21:17 | 6.69574 | -73.60126 | 9931 ft | 180 kts | 275° |
| 2026-05-03 21:17 | 6.69683 | -73.61381 | 9927 ft | 180 kts | 275° |
| 2026-05-03 21:18 | 6.69791 | -73.62619 | 9924 ft | 180 kts | 275° |
| 2026-05-03 21:18 | 6.69900 | -73.63873 | 9922 ft | 180 kts | 275° |
| 2026-05-03 21:18 | 6.69758 | -73.65111 | 9920 ft | 179 kts | 254° |
| 2026-05-03 21:18 | 6.69497 | -73.66336 | 9914 ft | 179 kts | 264° |
| 2026-05-03 21:19 | 6.69582 | -73.67586 | 9910 ft | 180 kts | 280° |
| 2026-05-03 21:19 | 6.69830 | -73.68818 | 9908 ft | 180 kts | 282° |
| 2026-05-03 21:19 | 6.70080 | -73.70050 | 9901 ft | 180 kts | 281° |
| 2026-05-03 21:19 | 6.70320 | -73.71281 | 9899 ft | 180 kts | 281° |
| 2026-05-03 21:20 | 6.70557 | -73.72517 | 9892 ft | 180 kts | 281° |
| 2026-05-03 21:20 | 6.70793 | -73.73752 | 9889 ft | 180 kts | 281° |
| 2026-05-03 21:20 | 6.71028 | -73.74972 | 9886 ft | 180 kts | 281° |
| 2026-05-03 21:20 | 6.71265 | -73.76209 | 9883 ft | 180 kts | 281° |
| 2026-05-03 21:21 | 6.71502 | -73.77444 | 9880 ft | 180 kts | 281° |
| 2026-05-03 21:21 | 6.71740 | -73.78680 | 9875 ft | 180 kts | 281° |
| 2026-05-03 21:21 | 6.71977 | -73.79917 | 9872 ft | 180 kts | 281° |
| 2026-05-03 21:21 | 6.72214 | -73.81154 | 9870 ft | 180 kts | 281° |
| 2026-05-03 21:22 | 6.72452 | -73.82392 | 9867 ft | 180 kts | 281° |
| 2026-05-03 21:22 | 6.72689 | -73.83630 | 9868 ft | 180 kts | 281° |
| 2026-05-03 21:22 | 6.72926 | -73.84868 | 9862 ft | 180 kts | 281° |
| 2026-05-03 21:22 | 6.73161 | -73.86089 | 9865 ft | 180 kts | 281° |
| 2026-05-03 21:23 | 6.73395 | -73.87316 | 9930 ft | 176 kts | 281° |
| 2026-05-03 21:23 | 6.73625 | -73.88519 | 9991 ft | 176 kts | 281° |
| 2026-05-03 21:23 | 6.73860 | -73.89737 | 9987 ft | 178 kts | 281° |
| 2026-05-03 21:23 | 6.74096 | -73.90966 | 9990 ft | 180 kts | 281° |
| 2026-05-03 21:24 | 6.74332 | -73.92203 | 9990 ft | 180 kts | 281° |
| 2026-05-03 21:24 | 6.74570 | -73.93443 | 9990 ft | 181 kts | 281° |
| 2026-05-03 21:24 | 6.74807 | -73.94682 | 9992 ft | 181 kts | 281° |
| 2026-05-03 21:24 | 6.75002 | -73.95914 | 9991 ft | 181 kts | 271° |
| 2026-05-03 21:25 | 6.74780 | -73.97154 | 9992 ft | 181 kts | 255° |
| 2026-05-03 21:25 | 6.74488 | -73.98383 | 9994 ft | 181 kts | 257° |
| 2026-05-03 21:25 | 6.74206 | -73.99615 | 9995 ft | 181 kts | 257° |
| 2026-05-03 21:25 | 6.73921 | -74.00846 | 9996 ft | 181 kts | 256° |
| 2026-05-03 21:26 | 6.73634 | -74.02077 | 9994 ft | 181 kts | 256° |
| 2026-05-03 21:26 | 6.73347 | -74.03308 | 9996 ft | 181 kts | 256° |
| 2026-05-03 21:26 | 6.73061 | -74.04539 | 9996 ft | 181 kts | 256° |
| 2026-05-03 21:26 | 6.72775 | -74.05769 | 9995 ft | 181 kts | 256° |
| 2026-05-03 21:27 | 6.72492 | -74.06983 | 9989 ft | 180 kts | 256° |
| 2026-05-03 21:27 | 6.72207 | -74.08211 | 9990 ft | 180 kts | 256° |
| 2026-05-03 21:27 | 6.71921 | -74.09437 | 9992 ft | 180 kts | 256° |
| 2026-05-03 21:27 | 6.71636 | -74.10663 | 9992 ft | 180 kts | 256° |
| 2026-05-03 21:28 | 6.71350 | -74.11891 | 9988 ft | 180 kts | 256° |
| 2026-05-03 21:28 | 6.71064 | -74.13118 | 9989 ft | 180 kts | 256° |
| 2026-05-03 21:28 | 6.70778 | -74.14346 | 9990 ft | 180 kts | 256° |
| 2026-05-03 21:28 | 6.70492 | -74.15575 | 9985 ft | 180 kts | 256° |
| 2026-05-03 21:29 | 6.70210 | -74.16785 | 9987 ft | 180 kts | 256° |
| 2026-05-03 21:29 | 6.69924 | -74.18014 | 9987 ft | 180 kts | 256° |
| 2026-05-03 21:29 | 6.69638 | -74.19242 | 9989 ft | 180 kts | 256° |
| 2026-05-03 21:29 | 6.69352 | -74.20470 | 9989 ft | 180 kts | 256° |
| 2026-05-03 21:30 | 6.69066 | -74.21699 | 9989 ft | 180 kts | 256° |
| 2026-05-03 21:30 | 6.68780 | -74.22928 | 9990 ft | 180 kts | 256° |
| 2026-05-03 21:30 | 6.68493 | -74.24156 | 9990 ft | 180 kts | 256° |
| 2026-05-03 21:30 | 6.68208 | -74.25383 | 9989 ft | 180 kts | 256° |
| 2026-05-03 21:31 | 6.67921 | -74.26613 | 9990 ft | 181 kts | 256° |
| 2026-05-03 21:31 | 6.67638 | -74.27827 | 9986 ft | 181 kts | 256° |
| 2026-05-03 21:31 | 6.67351 | -74.29059 | 9986 ft | 181 kts | 256° |
| 2026-05-03 21:31 | 6.67063 | -74.30289 | 9988 ft | 181 kts | 256° |
| 2026-05-03 21:32 | 6.66777 | -74.31521 | 9990 ft | 181 kts | 256° |
| 2026-05-03 21:32 | 6.66490 | -74.32752 | 9990 ft | 181 kts | 256° |
| 2026-05-03 21:32 | 6.66203 | -74.33981 | 9993 ft | 181 kts | 256° |
| 2026-05-03 21:32 | 6.65917 | -74.35210 | 9990 ft | 180 kts | 256° |
| 2026-05-03 21:33 | 6.65630 | -74.36439 | 9992 ft | 180 kts | 256° |
| 2026-05-03 21:33 | 6.65347 | -74.37652 | 9993 ft | 181 kts | 256° |
| 2026-05-03 21:33 | 6.65060 | -74.38882 | 9993 ft | 181 kts | 256° |
| 2026-05-03 21:33 | 6.64773 | -74.40112 | 9995 ft | 181 kts | 256° |
| 2026-05-03 21:34 | 6.64485 | -74.41344 | 9996 ft | 181 kts | 256° |
| 2026-05-03 21:34 | 6.64199 | -74.42575 | 9999 ft | 181 kts | 256° |
| 2026-05-03 21:34 | 6.63910 | -74.43807 | 9997 ft | 181 kts | 256° |
| 2026-05-03 21:34 | 6.63623 | -74.45041 | 9998 ft | 181 kts | 256° |
| 2026-05-03 21:35 | 6.63334 | -74.46274 | 10001 ft | 181 kts | 256° |
| 2026-05-03 21:35 | 6.63047 | -74.47507 | 10000 ft | 181 kts | 256° |
| 2026-05-03 21:35 | 6.62763 | -74.48725 | 10000 ft | 181 kts | 255° |
| 2026-05-03 21:35 | 6.62474 | -74.49958 | 10003 ft | 181 kts | 255° |
| 2026-05-03 21:36 | 6.62185 | -74.51194 | 10003 ft | 182 kts | 255° |
| 2026-05-03 21:36 | 6.61897 | -74.52431 | 10006 ft | 182 kts | 255° |
| 2026-05-03 21:36 | 6.61607 | -74.53669 | 10009 ft | 182 kts | 255° |
| 2026-05-03 21:36 | 6.61306 | -74.54902 | 10006 ft | 181 kts | 252° |
| 2026-05-03 21:37 | 6.60963 | -74.56124 | 10009 ft | 182 kts | 253° |
| 2026-05-03 21:37 | 6.60646 | -74.57351 | 10011 ft | 181 kts | 253° |
| 2026-05-03 21:37 | 6.60320 | -74.58575 | 10011 ft | 181 kts | 253° |
| 2026-05-03 21:37 | 6.59995 | -74.59783 | 10016 ft | 182 kts | 253° |
| 2026-05-03 21:38 | 6.59664 | -74.61013 | 10013 ft | 182 kts | 253° |
| 2026-05-03 21:38 | 6.59332 | -74.62244 | 10017 ft | 182 kts | 253° |
| 2026-05-03 21:38 | 6.59001 | -74.63475 | 10016 ft | 182 kts | 253° |
| 2026-05-03 21:38 | 6.58670 | -74.64705 | 10022 ft | 182 kts | 253° |
| 2026-05-03 21:39 | 6.58338 | -74.65936 | 10024 ft | 183 kts | 253° |
| 2026-05-03 21:39 | 6.58005 | -74.67171 | 10025 ft | 183 kts | 253° |
| 2026-05-03 21:39 | 6.57673 | -74.68405 | 10026 ft | 183 kts | 253° |
| 2026-05-03 21:39 | 6.57340 | -74.69641 | 10032 ft | 183 kts | 253° |
| 2026-05-03 21:40 | 6.57007 | -74.70875 | 10029 ft | 183 kts | 253° |
| 2026-05-03 21:40 | 6.56678 | -74.72095 | 10034 ft | 183 kts | 253° |
| 2026-05-03 21:40 | 6.56346 | -74.73329 | 10031 ft | 183 kts | 253° |
| 2026-05-03 21:40 | 6.56014 | -74.74562 | 10036 ft | 183 kts | 253° |
| 2026-05-03 21:41 | 6.55680 | -74.75795 | 10041 ft | 183 kts | 253° |
| 2026-05-03 21:41 | 6.55348 | -74.77031 | 10039 ft | 183 kts | 253° |
| 2026-05-03 21:41 | 6.55013 | -74.78270 | 10041 ft | 183 kts | 253° |
| 2026-05-03 21:41 | 6.54681 | -74.79505 | 10043 ft | 183 kts | 253° |
| 2026-05-03 21:42 | 6.54347 | -74.80742 | 10041 ft | 183 kts | 253° |
| 2026-05-03 21:42 | 6.54019 | -74.81962 | 10046 ft | 183 kts | 253° |
| 2026-05-03 21:42 | 6.53684 | -74.83199 | 10047 ft | 183 kts | 253° |
| 2026-05-03 21:42 | 6.53350 | -74.84437 | 10053 ft | 183 kts | 253° |
| 2026-05-03 21:43 | 6.53016 | -74.85674 | 10051 ft | 183 kts | 252° |
| 2026-05-03 21:43 | 6.52684 | -74.86906 | 10046 ft | 182 kts | 253° |
| 2026-05-03 21:43 | 6.52352 | -74.88136 | 10057 ft | 183 kts | 252° |
| 2026-05-03 21:43 | 6.52019 | -74.89370 | 10060 ft | 184 kts | 252° |
| 2026-05-03 21:44 | 6.51684 | -74.90610 | 10057 ft | 184 kts | 252° |
| 2026-05-03 21:44 | 6.51353 | -74.91835 | 10062 ft | 184 kts | 253° |
| 2026-05-03 21:44 | 6.51018 | -74.93077 | 10065 ft | 183 kts | 252° |
| 2026-05-03 21:44 | 6.50684 | -74.94313 | 10061 ft | 183 kts | 252° |
| 2026-05-03 21:45 | 6.50351 | -74.95549 | 10065 ft | 183 kts | 252° |
| 2026-05-03 21:45 | 6.50017 | -74.96784 | 10069 ft | 184 kts | 252° |
| 2026-05-03 21:45 | 6.49681 | -74.98026 | 10072 ft | 184 kts | 252° |
| 2026-05-03 21:45 | 6.49347 | -74.99264 | 10072 ft | 183 kts | 252° |
| 2026-05-03 21:46 | 6.49013 | -75.00500 | 10070 ft | 183 kts | 252° |
| 2026-05-03 21:46 | 6.48680 | -75.01733 | 10080 ft | 183 kts | 252° |
| 2026-05-03 21:46 | 6.48349 | -75.02958 | 10079 ft | 184 kts | 252° |
| 2026-05-03 21:46 | 6.48012 | -75.04202 | 10085 ft | 184 kts | 252° |
| 2026-05-03 21:47 | 6.47675 | -75.05446 | 10090 ft | 184 kts | 252° |
| 2026-05-03 21:47 | 6.47340 | -75.06688 | 10090 ft | 184 kts | 253° |
| 2026-05-03 21:47 | 6.47003 | -75.07936 | 10083 ft | 185 kts | 252° |
| 2026-05-03 21:47 | 6.46664 | -75.09191 | 10087 ft | 186 kts | 252° |
| 2026-05-03 21:48 | 6.46323 | -75.10448 | 10090 ft | 186 kts | 252° |
| 2026-05-03 21:48 | 6.45982 | -75.11704 | 10091 ft | 186 kts | 253° |
| 2026-05-03 21:48 | 6.45641 | -75.12964 | 10093 ft | 187 kts | 252° |
| 2026-05-03 21:48 | 6.45305 | -75.14207 | 10096 ft | 187 kts | 252° |
| 2026-05-03 21:49 | 6.44965 | -75.15464 | 10095 ft | 186 kts | 252° |
| 2026-05-03 21:49 | 6.44628 | -75.16714 | 10097 ft | 185 kts | 252° |
| 2026-05-03 21:49 | 6.44290 | -75.17962 | 10097 ft | 185 kts | 252° |
| 2026-05-03 21:49 | 6.43951 | -75.19209 | 10099 ft | 185 kts | 252° |
| 2026-05-03 21:50 | 6.43613 | -75.20461 | 10117 ft | 186 kts | 253° |
| 2026-05-03 21:50 | 6.43273 | -75.21720 | 10127 ft | 186 kts | 253° |
| 2026-05-03 21:50 | 6.42933 | -75.22973 | 10141 ft | 185 kts | 252° |
| 2026-05-03 21:50 | 6.42598 | -75.24215 | 10152 ft | 188 kts | 253° |
| 2026-05-03 21:51 | 6.42255 | -75.25479 | 10164 ft | 187 kts | 252° |
| 2026-05-03 21:51 | 6.41910 | -75.26746 | 10178 ft | 189 kts | 253° |
| 2026-05-03 21:51 | 6.41565 | -75.28022 | 10183 ft | 188 kts | 253° |
| 2026-05-03 21:51 | 6.41222 | -75.29287 | 10193 ft | 187 kts | 253° |
| 2026-05-03 21:52 | 6.40882 | -75.30554 | 10197 ft | 186 kts | 253° |
| 2026-05-03 21:52 | 6.40542 | -75.31800 | 10212 ft | 184 kts | 252° |
| 2026-05-03 21:52 | 6.40204 | -75.33032 | 10209 ft | 180 kts | 253° |
| 2026-05-03 21:52 | 6.39883 | -75.34225 | 10225 ft | 179 kts | 253° |
| 2026-05-03 21:53 | 6.39554 | -75.35441 | 10239 ft | 182 kts | 253° |
| 2026-05-03 21:53 | 6.39221 | -75.36678 | 10250 ft | 184 kts | 253° |
| 2026-05-03 21:53 | 6.38883 | -75.37925 | 10251 ft | 185 kts | 253° |
| 2026-05-03 21:53 | 6.38544 | -75.39174 | 10260 ft | 185 kts | 253° |
| 2026-05-03 21:54 | 6.38206 | -75.40421 | 10262 ft | 184 kts | 253° |
| 2026-05-03 21:54 | 6.37869 | -75.41661 | 10264 ft | 183 kts | 253° |
| 2026-05-03 21:54 | 6.37536 | -75.42894 | 10262 ft | 183 kts | 253° |
| 2026-05-03 21:54 | 6.37204 | -75.44111 | 10275 ft | 184 kts | 253° |
| 2026-05-03 21:55 | 6.36865 | -75.45360 | 10170 ft | 186 kts | 254° |
| 2026-05-03 21:55 | 6.36524 | -75.46622 | 10170 ft | 187 kts | 253° |
| 2026-05-03 21:55 | 6.36181 | -75.47882 | 10177 ft | 187 kts | 253° |
| 2026-05-03 21:55 | 6.35676 | -75.49055 | 10178 ft | 181 kts | 233° |
| 2026-05-03 21:56 | 6.34935 | -75.50099 | 10115 ft | 188 kts | 234° |
| 2026-05-03 21:56 | 6.34193 | -75.51210 | 9971 ft | 194 kts | 235° |
| 2026-05-03 21:56 | 6.33364 | -75.52285 | 9790 ft | 193 kts | 229° |
| 2026-05-03 21:56 | 6.32544 | -75.53268 | 9570 ft | 181 kts | 228° |
| 2026-05-03 21:57 | 6.31743 | -75.54226 | 9340 ft | 177 kts | 229° |
| 2026-05-03 21:57 | 6.30956 | -75.55163 | 9116 ft | 174 kts | 228° |
| 2026-05-03 21:57 | 6.30176 | -75.56095 | 8903 ft | 174 kts | 228° |
| 2026-05-03 21:57 | 6.29395 | -75.57025 | 8662 ft | 175 kts | 229° |
| 2026-05-03 21:58 | 6.28605 | -75.57960 | 8373 ft | 176 kts | 228° |
| 2026-05-03 21:58 | 6.27812 | -75.58896 | 8084 ft | 176 kts | 228° |
| 2026-05-03 21:58 | 6.27010 | -75.59814 | 7798 ft | 174 kts | 224° |
| 2026-05-03 21:58 | 6.26008 | -75.60456 | 7515 ft | 171 kts | 194° |
| 2026-05-03 21:59 | 6.24857 | -75.60503 | 7257 ft | 168 kts | 169° |
| 2026-05-03 21:59 | 6.23793 | -75.60061 | 7027 ft | 166 kts | 144° |
| 2026-05-03 21:59 | 6.22864 | -75.59374 | 6789 ft | 166 kts | 141° |
| 2026-05-03 21:59 | 6.21938 | -75.58669 | 6498 ft | 168 kts | 141° |
| 2026-05-03 22:00 | 6.21007 | -75.57965 | 6169 ft | 160 kts | 141° |
| 2026-05-03 22:00 | 6.20086 | -75.57522 | 5985 ft | 137 kts | 173° |
| 2026-05-03 22:00 | 6.19225 | -75.57758 | 5986 ft | 125 kts | 210° |
| 2026-05-03 22:00 | 6.18526 | -75.58169 | 5968 ft | 112 kts | 218° |
| 2026-05-03 22:01 | 6.18129 | -75.58836 | 5991 ft | 113 kts | 263° |
| 2026-05-03 22:01 | 6.18262 | -75.59552 | 5920 ft | 106 kts | 311° |
| 2026-05-03 22:01 | 6.18926 | -75.59752 | 5780 ft | 103 kts | 18° |
| 2026-05-03 22:01 | 6.19614 | -75.59538 | 5566 ft | 104 kts | 11° |
| 2026-05-03 22:02 | 6.20278 | -75.59379 | 5310 ft | 95 kts | 12° |
| 2026-05-03 22:02 | 6.20918 | -75.59257 | 5040 ft | 93 kts | 12° |
| 2026-05-03 22:02 | 6.21496 | -75.59158 | 4909 ft | 68 kts | 10° |
| 2026-05-03 22:02 | 6.21737 | -75.59104 | 4892 ft | 7 kts | 12° |
| 2026-05-03 22:03 | 6.21783 | -75.59096 | 4889 ft | 12 kts | 11° |
| 2026-05-03 22:03 | 6.21871 | -75.59075 | 4880 ft | 13 kts | 39° |
| 2026-05-03 22:03 | 6.21847 | -75.58992 | 4882 ft | 24 kts | 199° |
| 2026-05-03 22:03 | 6.21647 | -75.59031 | 4897 ft | 30 kts | 190° |
| 2026-05-03 22:04 | 6.21424 | -75.59074 | 4913 ft | 36 kts | 191° |
| 2026-05-03 22:04 | 6.21227 | -75.59104 | 4928 ft | 12 kts | 146° |
| 2026-05-03 22:04 | 6.21185 | -75.59066 | 4931 ft | 8 kts | 164° |
| 2026-05-03 22:04 | 6.21193 | -75.59057 | 4931 ft | 0 kts | 312° |